Time;durP1;ratioP1;P1;durP2;ratioP2;P2;SDS_P1;SDS_P2;PMS_P1;PMS_P2;Temp;Humidity;BMP_temperature;BMP_pressure;BME280_temperature;BME280_humidity;BME280_pressure;Samples;Min_cycle;Max_cycle;Signal;HPM_P1;HPM_P2
2023/06/23 00:01:00;;;;;;;9.05;5.30;;;;;;;22.85;79.34;100548.97;5068620;28;20025;-70
2023/06/23 00:03:26;;;;;;;14.75;6.05;;;;;;;22.82;78.85;100544.09;5067505;28;20523;-70
2023/06/23 00:05:52;;;;;;;6.97;5.97;;;;;;;22.81;78.14;100537.97;5069874;28;20389;-70
2023/06/23 00:08:17;;;;;;;9.95;5.32;;;;;;;22.84;77.68;100532.22;5067362;28;20514;-70
2023/06/23 00:10:47;;;;;;;7.68;5.95;;;;;;;22.87;77.17;100524.81;5071253;28;20040;-70
2023/06/23 00:13:13;;;;;;;10.15;4.90;;;;;;;22.94;76.62;100514.94;5068361;28;20029;-70
2023/06/23 00:15:39;;;;;;;7.55;5.75;;;;;;;22.96;76.55;100508.38;5082382;28;20499;-70
2023/06/23 00:18:05;;;;;;;9.15;5.47;;;;;;;22.95;76.84;100511.25;5067605;28;20083;-70
2023/06/23 00:20:31;;;;;;;8.43;5.82;;;;;;;22.94;77.04;100504.31;5031623;28;1156340;-70
2023/06/23 00:22:56;;;;;;;8.15;5.22;;;;;;;22.96;76.63;100502.25;5078920;28;20043;-70
2023/06/23 00:25:23;;;;;;;8.07;5.03;;;;;;;22.98;75.61;100502.81;5071960;28;20154;-69
2023/06/23 00:27:49;;;;;;;13.45;5.03;;;;;;;22.96;74.90;100492.44;5075042;28;20040;-70
2023/06/23 00:30:14;;;;;;;6.43;4.90;;;;;;;22.94;75.02;100493.69;5063576;28;20500;-70
2023/06/23 00:32:41;;;;;;;8.73;5.10;;;;;;;22.91;74.88;100494.13;5073629;28;20115;-70
2023/06/23 00:35:13;;;;;;;10.13;5.50;;;;;;;22.89;74.74;100485.56;5070896;28;20120;-70
2023/06/23 00:37:38;;;;;;;15.43;6.07;;;;;;;22.82;75.45;100486.47;5071260;28;20036;-70
2023/06/23 00:40:15;;;;;;;9.13;4.82;;;;;;;22.75;75.96;100493.66;5068456;28;20100;-70
2023/06/23 00:42:56;;;;;;;10.55;5.38;;;;;;;22.70;76.50;100493.53;5070152;28;20533;-70
2023/06/23 00:45:22;;;;;;;12.00;5.53;;;;;;;22.58;77.41;100491.88;5078361;28;20044;-70
2023/06/23 00:47:50;;;;;;;6.38;5.63;;;;;;;22.48;77.75;100487.88;5081697;28;20111;-70
2023/06/23 00:50:18;;;;;;;10.27;5.28;;;;;;;22.44;78.42;100494.66;5071537;28;20032;-70
2023/06/23 00:52:51;;;;;;;11.48;6.38;;;;;;;22.44;78.72;100493.84;5071536;28;20399;-70
2023/06/23 00:55:25;;;;;;;9.98;6.55;;;;;;;22.43;79.93;100503.66;5073415;28;20051;-70
2023/06/23 00:57:52;;;;;;;13.90;7.07;;;;;;;22.37;80.91;100509.03;5076569;28;20058;-71
2023/06/23 01:00:19;;;;;;;14.80;7.28;;;;;;;22.33;81.75;100502.53;5085208;28;20028;-71
2023/06/23 01:02:49;;;;;;;9.88;7.25;;;;;;;22.29;81.98;100496.06;5079786;28;20124;-71
2023/06/23 01:05:36;;;;;;;13.30;7.38;;;;;;;22.21;83.54;100488.41;5067323;28;20028;-72
2023/06/23 01:08:20;;;;;;;11.02;6.22;;;;;;;22.18;83.22;100493.13;5081835;28;20032;-71
2023/06/23 01:11:08;;;;;;;13.48;6.35;;;;;;;22.23;82.23;100491.63;5070867;28;20454;-71
2023/06/23 01:14:04;;;;;;;12.05;6.55;;;;;;;22.26;82.16;100492.00;5058283;28;20062;-71
2023/06/23 01:16:57;;;;;;;8.95;6.18;;;;;;;22.26;81.29;100486.69;5065026;28;20119;-72
2023/06/23 01:20:15;;;;;;;9.02;5.80;;;;;;;22.35;80.04;100484.56;5064686;28;20066;-71
2023/06/23 01:23:20;;;;;;;11.13;6.20;;;;;;;22.52;79.05;100480.28;5064159;28;20105;-71
2023/06/23 01:26:13;;;;;;;8.15;5.57;;;;;;;22.47;79.02;100480.94;5019708;28;20041;-71
2023/06/23 01:28:54;;;;;;;5.82;4.47;;;;;;;22.55;76.59;100474.53;5019023;28;20046;-72
2023/06/23 01:31:43;;;;;;;7.72;4.82;;;;;;;22.61;76.14;100465.69;5020215;28;20053;-71
2023/06/23 01:34:16;;;;;;;8.82;4.53;;;;;;;22.62;76.35;100463.84;5025707;28;20034;-71
2023/06/23 01:36:44;;;;;;;9.48;4.95;;;;;;;22.61;76.02;100468.34;5025553;28;20102;-72
2023/06/23 01:39:32;;;;;;;10.50;4.72;;;;;;;22.64;75.26;100461.78;4996315;28;20405;-72
2023/06/23 01:42:02;;;;;;;7.97;4.22;;;;;;;22.65;75.37;100453.59;5004751;28;20076;-72
2023/06/23 01:44:31;;;;;;;8.45;4.45;;;;;;;22.63;75.35;100450.34;5029267;28;20108;-71
2023/06/23 01:46:59;;;;;;;7.72;4.65;;;;;;;22.63;75.77;100450.34;5019943;28;20046;-71
2023/06/23 01:49:36;;;;;;;5.45;4.00;;;;;;;22.51;76.47;100447.63;5023622;28;20041;-71
2023/06/23 01:52:06;;;;;;;7.18;4.15;;;;;;;22.46;76.32;100449.31;5028782;28;20163;-71
2023/06/23 01:54:36;;;;;;;17.13;4.68;;;;;;;22.50;75.34;100446.00;5025525;28;20065;-71
2023/06/23 01:57:05;;;;;;;11.23;4.18;;;;;;;22.46;75.77;100439.50;5020288;28;20053;-72
2023/06/23 01:59:35;;;;;;;9.38;4.93;;;;;;;22.58;75.18;100441.41;5021418;28;20086;-72
2023/06/23 02:02:03;;;;;;;7.03;4.45;;;;;;;22.69;75.16;100433.47;5037508;28;20044;-73
2023/06/23 02:04:32;;;;;;;7.88;4.88;;;;;;;22.72;75.86;100426.91;5069598;28;20099;-73
2023/06/23 02:06:59;;;;;;;8.57;5.90;;;;;;;22.64;76.90;100421.94;5072047;28;20032;-73
2023/06/23 02:09:29;;;;;;;8.73;5.53;;;;;;;22.51;78.26;100414.94;5071903;28;20024;-72
2023/06/23 02:11:57;;;;;;;8.93;5.18;;;;;;;22.48;77.95;100412.75;5066194;28;20032;-72
2023/06/23 02:14:27;;;;;;;9.05;5.10;;;;;;;22.50;78.19;100405.38;5066654;28;20020;-72
2023/06/23 02:16:55;;;;;;;12.63;6.85;;;;;;;22.56;78.03;100395.69;5068670;28;20417;-73
2023/06/23 02:19:24;;;;;;;8.18;5.63;;;;;;;22.57;77.69;100402.63;5056322;28;20052;-72
2023/06/23 02:21:51;;;;;;;7.15;5.35;;;;;;;22.57;77.88;100408.75;5068821;28;20047;-72
2023/06/23 02:24:17;;;;;;;7.15;4.47;;;;;;;22.57;77.64;100398.13;5067633;28;20025;-72
2023/06/23 02:26:47;;;;;;;6.00;4.65;;;;;;;22.48;78.53;100394.16;5066541;28;20028;-72
2023/06/23 02:29:14;;;;;;;7.80;4.60;;;;;;;22.37;79.24;100392.25;5069773;28;20036;-72
2023/06/23 02:31:40;;;;;;;8.48;4.55;;;;;;;22.25;79.37;100394.03;5062288;28;20364;-72
2023/06/23 02:34:06;;;;;;;6.18;4.45;;;;;;;22.17;79.50;100397.81;5070343;28;20036;-72
2023/06/23 02:36:43;;;;;;;6.57;4.43;;;;;;;22.09;80.34;100403.41;5064490;28;20048;-72
2023/06/23 02:39:13;;;;;;;8.82;5.03;;;;;;;21.99;80.26;100395.94;5077415;28;20043;-72
2023/06/23 02:41:40;;;;;;;7.72;4.43;;;;;;;21.97;79.99;100390.03;5067195;28;20056;-72
2023/06/23 02:44:13;;;;;;;9.65;5.22;;;;;;;22.06;80.17;100383.44;5076353;28;20036;-72
2023/06/23 02:46:44;;;;;;;11.30;4.85;;;;;;;22.14;79.25;100393.75;5072872;28;20086;-72
2023/06/23 02:49:14;;;;;;;9.07;5.03;;;;;;;22.20;78.63;100396.56;5070388;28;20484;-72
2023/06/23 02:51:43;;;;;;;7.65;4.35;;;;;;;22.15;79.27;100398.03;5067284;28;20477;-72
2023/06/23 02:54:13;;;;;;;8.90;5.00;;;;;;;22.04;79.83;100401.44;5073792;28;20059;-72
2023/06/23 02:56:42;;;;;;;5.03;4.28;;;;;;;21.93;80.22;100399.47;5061584;28;20188;-72
2023/06/23 02:59:11;;;;;;;9.50;5.13;;;;;;;21.91;80.71;100401.53;5063600;28;20055;-72
2023/06/23 03:01:40;;;;;;;7.65;4.65;;;;;;;21.83;80.96;100407.13;5063820;28;20029;-72
2023/06/23 03:04:06;;;;;;;11.55;5.28;;;;;;;21.81;80.74;100406.53;5069006;28;20033;-72
2023/06/23 03:06:36;;;;;;;9.32;4.38;;;;;;;21.82;80.55;100411.59;5072526;28;20063;-72
2023/06/23 03:09:03;;;;;;;5.25;4.70;;;;;;;21.87;81.27;100408.28;5074499;28;20588;-72
2023/06/23 03:11:30;;;;;;;10.30;5.40;;;;;;;21.81;81.11;100403.88;5066399;28;20028;-72
2023/06/23 03:13:57;;;;;;;15.00;5.75;;;;;;;21.86;80.63;100422.59;5057993;28;20361;-72
2023/06/23 03:16:38;;;;;;;7.50;5.20;;;;;;;21.90;80.79;100413.16;5069780;28;20082;-72
2023/06/23 03:19:33;;;;;;;11.15;5.75;;;;;;;22.09;80.13;100409.53;5065507;28;20032;-72
2023/06/23 03:22:07;;;;;;;8.48;5.70;;;;;;;22.29;79.52;100416.44;5063769;28;20048;-72
2023/06/23 03:24:37;;;;;;;14.18;7.28;;;;;;;22.38;80.20;100420.41;5064033;28;20041;-72
2023/06/23 03:27:06;;;;;;;11.30;6.93;;;;;;;22.38;81.38;100421.22;5059122;28;20044;-71
2023/06/23 03:29:44;;;;;;;9.57;7.05;;;;;;;22.31;82.91;100425.00;5064189;28;20060;-72
2023/06/23 03:32:14;;;;;;;10.55;7.60;;;;;;;22.24;84.10;100432.22;5075347;28;20056;-72
2023/06/23 03:34:45;;;;;;;9.65;7.47;;;;;;;22.23;84.16;100433.25;5074325;28;20056;-72
2023/06/23 03:37:14;;;;;;;15.50;8.07;;;;;;;22.19;84.85;100435.56;5067433;28;20036;-72
2023/06/23 03:39:44;;;;;;;11.60;7.75;;;;;;;22.21;85.42;100443.28;5074346;28;20025;-72
2023/06/23 03:42:11;;;;;;;18.13;8.38;;;;;;;22.16;86.32;100443.97;5066992;28;20531;-72
2023/06/23 03:44:45;;;;;;;11.68;8.30;;;;;;;22.12;87.65;100440.94;5081501;28;20221;-72
2023/06/23 03:47:17;;;;;;;11.55;8.52;;;;;;;22.08;88.66;100437.09;5074754;28;20056;-72
2023/06/23 03:49:48;;;;;;;14.52;8.48;;;;;;;22.07;88.26;100434.66;5071983;28;20057;-73
2023/06/23 03:52:16;;;;;;;13.68;8.63;;;;;;;22.10;88.14;100440.34;5064258;28;20395;-72
2023/06/23 03:54:44;;;;;;;17.17;8.40;;;;;;;22.14;87.43;100432.75;5070378;28;20024;-72
2023/06/23 03:57:16;;;;;;;8.75;7.68;;;;;;;22.16;88.00;100430.69;5072623;28;20504;-72
2023/06/23 03:59:44;;;;;;;12.35;8.63;;;;;;;22.17;88.21;100414.56;5080828;28;20032;-72
2023/06/23 04:02:15;;;;;;;12.23;8.02;;;;;;;22.18;88.10;100413.53;5071722;28;20469;-73
2023/06/23 04:04:44;;;;;;;8.30;6.85;;;;;;;22.24;86.47;100410.97;5075652;28;20169;-73
2023/06/23 04:07:12;;;;;;;11.07;6.93;;;;;;;22.31;85.03;100403.75;5067460;28;20041;-73
2023/06/23 04:09:42;;;;;;;9.32;6.30;;;;;;;22.35;83.90;100399.63;5071786;28;20126;-73
2023/06/23 04:12:11;;;;;;;8.82;5.80;;;;;;;22.42;83.14;100395.84;5070321;28;20489;-73
2023/06/23 04:14:39;;;;;;;11.80;5.70;;;;;;;22.46;81.96;100397.03;5067701;28;20834;-73
2023/06/23 04:17:11;;;;;;;12.88;6.40;;;;;;;22.52;81.90;100395.34;5071372;28;20032;-73
2023/06/23 04:19:39;;;;;;;12.27;5.95;;;;;;;22.61;80.67;100404.63;5068340;28;20385;-73
2023/06/23 04:22:07;;;;;;;10.23;5.88;;;;;;;22.69;79.75;100414.91;5069718;28;20020;-73
2023/06/23 04:24:37;;;;;;;6.78;5.15;;;;;;;22.79;79.35;100422.34;5063559;28;20033;-72
2023/06/23 04:27:05;;;;;;;9.02;5.18;;;;;;;22.85;79.82;100437.41;5073097;28;20474;-71
2023/06/23 04:29:33;;;;;;;9.18;6.07;;;;;;;22.82;80.80;100441.31;5059213;28;20029;-72
2023/06/23 04:32:00;;;;;;;10.82;6.72;;;;;;;22.77;80.88;100432.38;5066478;28;20051;-72
2023/06/23 04:34:25;;;;;;;10.25;7.65;;;;;;;22.65;82.76;100458.09;5076457;28;20111;-72
2023/06/23 04:37:11;;;;;;;12.68;8.00;;;;;;;22.48;86.22;100463.19;5073926;28;20161;-72
2023/06/23 04:39:53;;;;;;;10.63;7.75;;;;;;;22.44;87.08;100462.00;5074092;28;20119;-71
2023/06/23 04:42:26;;;;;;;11.10;9.00;;;;;;;22.49;86.84;100448.88;5075319;28;20097;-72
2023/06/23 04:44:55;;;;;;;16.70;7.93;;;;;;;22.61;86.34;100446.28;5063549;28;20028;-72
2023/06/23 04:47:24;;;;;;;12.48;7.97;;;;;;;22.60;86.26;100449.97;5077329;28;20167;-71
2023/06/23 04:49:54;;;;;;;12.93;7.60;;;;;;;22.56;86.79;100446.94;5070949;28;20047;-71
2023/06/23 04:52:23;;;;;;;11.48;7.38;;;;;;;22.65;86.06;100448.28;5062326;28;20036;-71
2023/06/23 04:54:53;;;;;;;9.55;6.63;;;;;;;22.76;84.65;100444.84;5065280;28;20028;-70
2023/06/23 04:57:24;;;;;;;11.27;6.88;;;;;;;22.89;83.84;100437.75;5068473;28;20028;-70
2023/06/23 04:59:53;;;;;;;8.90;6.20;;;;;;;23.00;82.97;100435.16;5072184;28;20043;-69
2023/06/23 05:02:20;;;;;;;10.88;5.80;;;;;;;23.13;81.24;100437.63;5064027;28;20032;-70
2023/06/23 05:04:48;;;;;;;10.15;5.18;;;;;;;23.26;80.35;100441.91;5074583;28;20175;-70
2023/06/23 05:07:17;;;;;;;8.52;5.88;;;;;;;23.41;80.13;100436.16;5069403;28;20036;-70
2023/06/23 05:09:47;;;;;;;7.13;4.88;;;;;;;23.47;78.29;100444.03;5066238;28;20033;-69
2023/06/23 05:12:16;;;;;;;11.38;5.20;;;;;;;23.44;77.94;100441.81;5067625;28;20117;-70
2023/06/23 05:14:44;;;;;;;8.38;5.38;;;;;;;23.34;78.50;100452.19;5065721;28;20032;-70
2023/06/23 05:17:13;;;;;;;9.18;6.30;;;;;;;23.42;78.65;100451.06;5071718;28;21265;-69
2023/06/23 05:19:43;;;;;;;13.63;6.28;;;;;;;23.52;78.63;100443.34;5079020;28;20127;-70
2023/06/23 05:22:12;;;;;;;8.07;6.68;;;;;;;23.45;79.79;100446.09;5065490;28;20071;-70
2023/06/23 05:24:42;;;;;;;10.93;6.18;;;;;;;23.37;79.63;100435.00;5059801;28;20041;-69
2023/06/23 05:27:10;;;;;;;11.98;6.90;;;;;;;23.39;79.78;100439.03;5074269;28;20078;-70
2023/06/23 05:29:39;;;;;;;11.00;6.47;;;;;;;23.53;79.70;100447.66;5078249;28;20039;-70
2023/06/23 05:32:10;;;;;;;16.00;6.63;;;;;;;23.68;79.07;100444.50;5073653;28;20035;-70
2023/06/23 05:34:36;;;;;;;16.20;6.13;;;;;;;23.72;78.68;100448.34;5061166;28;20029;-70
2023/06/23 05:37:05;;;;;;;12.68;6.07;;;;;;;23.79;78.47;100436.53;5054141;28;20033;-70
2023/06/23 05:39:34;;;;;;;7.38;6.05;;;;;;;23.83;78.63;100442.22;5066421;28;20049;-70
2023/06/23 05:42:00;;;;;;;14.73;5.88;;;;;;;23.80;78.38;100429.38;5062579;28;20051;-70
2023/06/23 05:44:25;;;;;;;10.73;6.80;;;;;;;23.82;78.53;100443.25;5080512;28;20036;-70
2023/06/23 05:46:56;;;;;;;14.65;6.72;;;;;;;23.82;78.74;100430.75;5071870;28;20641;-70
2023/06/23 05:49:23;;;;;;;12.65;6.57;;;;;;;23.88;78.66;100421.03;5085944;28;20051;-70
2023/06/23 05:52:02;;;;;;;13.40;6.82;;;;;;;24.00;79.40;100424.50;5072407;28;20073;-70
2023/06/23 05:54:34;;;;;;;14.98;9.00;;;;;;;24.03;79.02;100433.88;5068598;28;20043;-70
2023/06/23 05:57:04;;;;;;;15.30;8.68;;;;;;;24.13;79.45;100434.88;5069486;28;20551;-70
2023/06/23 05:59:39;;;;;;;17.33;7.82;;;;;;;24.15;80.29;100430.13;5059643;28;20048;-69
2023/06/23 06:02:05;;;;;;;;;;;;;;;24.27;80.01;100435.47;5061004;28;20039;-69
2023/06/23 06:04:50;;;;;;;18.90;7.70;;;;;;;24.41;79.43;100433.34;5060329;28;20360;-69
2023/06/23 06:07:18;;;;;;;12.98;6.88;;;;;;;24.54;78.14;100427.75;5060959;28;20036;-69
2023/06/23 06:09:45;;;;;;;9.70;7.18;;;;;;;24.63;77.48;100428.16;5052674;28;20040;-69
2023/06/23 06:12:12;;;;;;;12.55;6.47;;;;;;;24.78;77.09;100426.59;5059192;28;20488;-68
2023/06/23 06:14:39;;;;;;;16.40;6.55;;;;;;;24.84;76.91;100422.19;5065883;28;20029;-68
2023/06/23 06:17:08;;;;;;;13.98;7.05;;;;;;;24.68;77.63;100421.09;5073077;28;20026;-68
2023/06/23 06:19:36;;;;;;;13.73;6.82;;;;;;;24.56;77.18;100422.19;5064894;28;20106;-68
2023/06/23 06:22:04;;;;;;;15.75;7.05;;;;;;;24.48;77.49;100410.06;5061236;28;20031;-69
2023/06/23 06:24:31;;;;;;;16.98;6.97;;;;;;;24.45;78.01;100413.19;5058232;28;20039;-69
2023/06/23 06:27:00;;;;;;;10.93;6.63;;;;;;;24.42;78.49;100421.66;5065002;28;20124;-69
2023/06/23 06:29:27;;;;;;;11.57;6.28;;;;;;;24.43;78.70;100412.63;5053921;28;20061;-68
2023/06/23 06:31:56;;;;;;;16.83;7.55;;;;;;;24.57;77.94;100413.97;5061690;28;20490;-69
2023/06/23 06:34:24;;;;;;;12.32;6.57;;;;;;;24.57;78.19;100405.19;5065869;28;20052;-68
2023/06/23 06:36:53;;;;;;;14.68;7.47;;;;;;;24.58;78.45;100406.75;5071009;28;20447;-71
2023/06/23 06:39:19;;;;;;;8.35;7.13;;;;;;;24.62;77.74;100399.91;5064070;28;20036;-71
2023/06/23 06:41:46;;;;;;;9.80;6.28;;;;;;;24.71;77.59;100399.28;5062941;28;20043;-69
2023/06/23 06:44:11;;;;;;;14.00;6.90;;;;;;;24.74;77.52;100409.47;5074233;28;20150;-68
2023/06/23 06:46:40;;;;;;;9.70;6.07;;;;;;;24.91;76.95;100398.06;5073942;28;20557;-69
2023/06/23 06:49:08;;;;;;;11.95;6.22;;;;;;;24.96;76.62;100392.84;5072181;28;20029;-68
2023/06/23 06:51:35;;;;;;;9.43;6.22;;;;;;;25.04;75.65;100398.59;5066262;28;20031;-69
2023/06/23 06:54:00;;;;;;;18.42;7.30;;;;;;;25.19;75.55;100383.88;5069858;28;20059;-68
2023/06/23 06:56:26;;;;;;;16.92;6.57;;;;;;;25.30;75.17;100380.31;5062436;28;20064;-68
2023/06/23 06:58:52;;;;;;;19.58;7.47;;;;;;;25.40;74.70;100375.16;5072358;28;20032;-68
2023/06/23 07:01:18;;;;;;;18.60;7.07;;;;;;;25.61;74.02;100374.38;5066719;28;20040;-68
2023/06/23 07:03:44;;;;;;;17.60;6.60;;;;;;;25.81;72.96;100375.75;5073111;28;20032;-69
2023/06/23 07:06:10;;;;;;;12.77;6.55;;;;;;;25.94;72.85;100378.06;5061246;28;20056;-68
2023/06/23 07:08:36;;;;;;;20.33;6.60;;;;;;;26.13;72.58;100379.34;5078964;28;20119;-69
2023/06/23 07:11:01;;;;;;;16.45;6.05;;;;;;;26.36;71.78;100397.00;5068728;28;20437;-69
2023/06/23 07:13:27;;;;;;;18.13;6.05;;;;;;;26.50;70.09;100398.22;5078835;28;20032;-69
2023/06/23 07:15:52;;;;;;;11.32;6.53;;;;;;;26.70;69.43;100392.28;5068175;28;20396;-68
2023/06/23 07:18:18;;;;;;;13.02;6.35;;;;;;;26.90;68.52;100394.34;5071802;28;20055;-72
2023/06/23 07:20:43;;;;;;;10.05;5.85;;;;;;;27.16;68.33;100393.53;5070022;28;20482;-68
2023/06/23 07:23:09;;;;;;;12.57;5.70;;;;;;;27.21;67.58;100406.94;5068674;28;20044;-69
2023/06/23 07:25:35;;;;;;;19.80;6.10;;;;;;;27.32;67.77;100407.81;5075642;28;20021;-68
2023/06/23 07:28:03;;;;;;;12.27;6.25;;;;;;;27.24;68.22;100411.78;5065806;28;20066;-68
2023/06/23 07:30:28;;;;;;;11.32;5.57;;;;;;;26.91;69.53;100412.81;5060733;28;20029;-68
2023/06/23 07:32:54;;;;;;;10.77;5.47;;;;;;;26.81;69.75;100410.03;5064574;28;20500;-69
2023/06/23 07:35:20;;;;;;;12.10;5.38;;;;;;;27.04;68.74;100407.06;5068958;28;20112;-68
2023/06/23 07:37:46;;;;;;;11.80;5.18;;;;;;;27.26;67.73;100409.66;5068466;28;20139;-69
2023/06/23 07:40:12;;;;;;;14.23;6.85;;;;;;;27.39;67.36;100411.09;5064600;28;20466;-68
2023/06/23 07:42:37;;;;;;;11.88;6.03;;;;;;;27.47;66.71;100412.44;5060847;28;20146;-68
2023/06/23 07:45:03;;;;;;;17.42;5.80;;;;;;;27.60;66.66;100399.47;5069159;28;20032;-69
2023/06/23 07:47:28;;;;;;;19.70;5.78;;;;;;;27.69;66.47;100405.16;5076249;28;20041;-68
2023/06/23 07:49:54;;;;;;;15.55;6.57;;;;;;;27.72;66.56;100401.97;5073510;28;20040;-68
2023/06/23 07:52:19;;;;;;;9.45;5.20;;;;;;;27.59;65.54;100403.22;5058204;28;20032;-68
2023/06/23 07:54:45;;;;;;;20.65;5.55;;;;;;;27.48;65.23;100396.16;5069645;28;20033;-69
2023/06/23 07:57:12;;;;;;;13.13;4.88;;;;;;;27.46;65.73;100400.94;5066759;28;20097;-69
2023/06/23 07:59:38;;;;;;;10.70;5.30;;;;;;;27.55;66.30;100403.94;5072043;28;20071;-68
2023/06/23 08:02:04;;;;;;;12.15;5.07;;;;;;;27.75;65.70;100401.44;5075273;28;20120;-68
2023/06/23 08:04:30;;;;;;;11.73;5.18;;;;;;;27.85;65.83;100393.47;5076222;28;20032;-69
2023/06/23 08:06:55;;;;;;;10.65;5.10;;;;;;;28.02;65.54;100390.59;5071179;28;20025;-68
2023/06/23 08:09:20;;;;;;;11.20;5.00;;;;;;;28.02;66.80;100393.25;5075391;28;20036;-69
2023/06/23 08:11:46;;;;;;;11.23;5.25;;;;;;;28.04;67.05;100393.81;5078489;28;20051;-68
2023/06/23 08:14:11;;;;;;;15.90;6.40;;;;;;;28.39;66.50;100388.59;5073182;28;20033;-69
2023/06/23 08:16:37;;;;;;;13.00;5.25;;;;;;;28.61;64.52;100383.03;5064054;28;20172;-69
2023/06/23 08:19:03;;;;;;;10.35;4.03;;;;;;;28.78;62.86;100379.31;5079705;28;20483;-69
2023/06/23 08:21:29;;;;;;;12.13;4.90;;;;;;;28.89;62.21;100365.63;5070765;28;20029;-68
2023/06/23 08:23:54;;;;;;;16.83;5.53;;;;;;;28.86;62.54;100363.50;5078311;28;20027;-69
2023/06/23 08:26:20;;;;;;;10.48;5.07;;;;;;;28.71;63.13;100364.28;5064082;28;20044;-69
2023/06/23 08:28:45;;;;;;;9.35;4.60;;;;;;;28.71;64.11;100363.47;5070304;28;20365;-69
2023/06/23 08:31:11;;;;;;;10.15;4.43;;;;;;;28.83;64.59;100355.22;5071510;28;20034;-69
2023/06/23 08:33:38;;;;;;;11.18;4.97;;;;;;;29.18;64.60;100365.91;5077988;28;20032;-69
2023/06/23 08:36:03;;;;;;;15.52;4.18;;;;;;;29.43;63.64;100359.72;5076309;28;20039;-69
2023/06/23 08:38:29;;;;;;;8.80;4.55;;;;;;;29.83;63.33;100361.47;5072138;28;20039;-69
2023/06/23 08:40:54;;;;;;;14.13;4.15;;;;;;;30.00;61.51;100361.19;5079898;28;20385;-68
2023/06/23 08:43:26;;;;;;;10.32;4.60;;;;;;;30.28;59.99;100359.69;5069609;28;20029;-69
2023/06/23 08:45:59;;;;;;;12.00;4.57;;;;;;;30.24;60.48;100356.78;5069710;28;20021;-69
2023/06/23 08:48:29;;;;;;;10.30;4.60;;;;;;;30.30;60.20;100355.63;5068166;28;20056;-70
2023/06/23 08:51:02;;;;;;;12.00;5.15;;;;;;;30.45;58.98;100362.00;5076231;28;20387;-69
2023/06/23 08:53:28;;;;;;;7.78;4.40;;;;;;;30.62;59.16;100357.91;5079392;28;20143;-69
2023/06/23 08:55:55;;;;;;;9.43;4.20;;;;;;;30.74;59.05;100357.50;5079769;28;20103;-68
2023/06/23 08:58:22;;;;;;;15.07;4.63;;;;;;;30.34;59.41;100361.25;5072109;28;20374;-68
2023/06/23 09:00:49;;;;;;;7.45;4.35;;;;;;;29.90;61.04;100351.25;5082289;28;20024;-69
2023/06/23 09:03:14;;;;;;;8.93;4.57;;;;;;;29.69;60.01;100358.59;5082110;28;20024;-68
2023/06/23 09:05:41;;;;;;;12.13;5.25;;;;;;;29.74;60.25;100346.22;5083162;28;20047;-68
2023/06/23 09:08:07;;;;;;;9.63;5.00;;;;;;;29.84;60.62;100349.66;5083124;28;20048;-68
2023/06/23 09:10:33;;;;;;;12.88;5.10;;;;;;;30.17;59.81;100344.72;5081178;28;20028;-68
2023/06/23 09:13:07;;;;;;;13.05;4.65;;;;;;;30.12;59.41;100344.75;5085662;28;20027;-68
2023/06/23 09:15:33;;;;;;;10.80;4.40;;;;;;;30.12;58.83;100350.13;5071810;28;20025;-68
2023/06/23 09:18:02;;;;;;;12.88;5.03;;;;;;;29.91;58.75;100344.78;5075588;28;20040;-68
2023/06/23 09:20:29;;;;;;;10.77;5.13;;;;;;;30.02;58.82;100338.34;5082499;28;20112;-68
2023/06/23 09:22:55;;;;;;;9.32;4.93;;;;;;;30.39;57.78;100331.66;5080014;28;20032;-68
2023/06/23 09:25:37;;;;;;;13.85;4.97;;;;;;;30.64;55.64;100331.53;5083026;28;20019;-68
2023/06/23 09:28:02;;;;;;;11.90;4.97;;;;;;;30.70;54.85;100321.53;5077856;28;20043;-69
2023/06/23 09:30:33;;;;;;;11.38;4.78;;;;;;;30.58;56.30;100310.34;5082139;28;20023;-68
2023/06/23 09:33:00;;;;;;;13.07;4.88;;;;;;;30.93;56.33;100303.84;5088470;28;20096;-67
2023/06/23 09:35:26;;;;;;;10.38;4.10;;;;;;;30.74;56.21;100294.88;5085886;28;20399;-67
2023/06/23 09:37:52;;;;;;;6.95;4.47;;;;;;;30.37;57.63;100299.69;5082351;28;20028;-67
2023/06/23 09:40:26;;;;;;;17.02;4.20;;;;;;;30.09;58.12;100302.31;5067289;28;20353;-67
2023/06/23 09:43:01;;;;;;;18.27;4.68;;;;;;;30.36;57.42;100305.34;5069482;28;20039;-68
2023/06/23 09:45:26;;;;;;;10.75;4.28;;;;;;;30.64;56.92;100296.59;5065937;28;20024;-69
2023/06/23 09:47:52;;;;;;;8.40;4.57;;;;;;;30.37;57.81;100301.56;5071217;28;20367;-67
2023/06/23 09:50:21;;;;;;;13.07;4.70;;;;;;;29.83;58.77;100297.03;5073129;28;20032;-67
2023/06/23 09:52:46;;;;;;;9.23;4.10;;;;;;;29.85;58.42;100286.81;5069741;28;20047;-67
2023/06/23 09:55:12;;;;;;;10.73;4.45;;;;;;;29.98;56.47;100285.41;5070817;28;20060;-67
2023/06/23 09:57:38;;;;;;;10.00;4.07;;;;;;;30.23;55.29;100284.50;5070801;28;20031;-67
2023/06/23 10:00:08;;;;;;;10.55;4.38;;;;;;;30.60;55.16;100289.34;5070134;28;20032;-66
2023/06/23 10:02:38;;;;;;;8.55;4.10;;;;;;;31.02;53.94;100284.13;5075505;28;20160;-67
2023/06/23 10:05:05;;;;;;;9.65;5.18;;;;;;;31.17;54.37;100283.19;5069383;28;20032;-67
2023/06/23 10:07:32;;;;;;;9.68;4.25;;;;;;;31.25;53.92;100284.44;5073534;28;20182;-67
2023/06/23 10:09:59;;;;;;;15.68;4.65;;;;;;;31.14;53.11;100278.38;5070379;28;20048;-66
2023/06/23 10:12:27;;;;;;;15.40;4.40;;;;;;;31.39;52.34;100279.19;5076572;28;20522;-67
2023/06/23 10:14:55;;;;;;;11.43;4.90;;;;;;;31.32;52.55;100279.53;5066472;28;20027;-66
2023/06/23 10:17:21;;;;;;;11.70;4.50;;;;;;;31.47;53.99;100283.94;5077462;28;20556;-67
2023/06/23 10:19:48;;;;;;;7.78;4.93;;;;;;;31.60;53.03;100285.94;5072301;28;20101;-67
2023/06/23 10:22:15;;;;;;;9.82;4.20;;;;;;;31.53;53.25;100280.09;5074407;28;20090;-67
2023/06/23 10:24:46;;;;;;;10.55;4.15;;;;;;;31.56;53.09;100280.31;5076622;28;20111;-66
2023/06/23 10:27:16;;;;;;;11.70;4.03;;;;;;;31.59;54.10;100273.56;5074683;28;20046;-66
2023/06/23 10:29:50;;;;;;;9.88;4.45;;;;;;;31.85;52.91;100282.13;5073959;28;20122;-66
2023/06/23 10:32:17;;;;;;;10.18;3.33;;;;;;;31.99;52.38;100280.31;5063399;28;20036;-66
2023/06/23 10:34:45;;;;;;;10.93;3.53;;;;;;;32.07;51.10;100273.47;5072713;28;20025;-66
2023/06/23 10:37:15;;;;;;;7.35;3.55;;;;;;;32.02;51.38;100276.25;5075702;28;20029;-66
2023/06/23 10:39:46;;;;;;;16.35;4.68;;;;;;;31.86;50.10;100273.75;5074617;28;20052;-66
2023/06/23 10:42:13;;;;;;;10.27;3.58;;;;;;;31.88;50.37;100276.16;5067113;28;20037;-66
2023/06/23 10:44:41;;;;;;;15.07;3.70;;;;;;;31.99;50.66;100269.53;5077898;28;20065;-67
2023/06/23 10:47:07;;;;;;;13.13;3.35;;;;;;;32.07;49.78;100268.91;5073200;28;20032;-67
2023/06/23 10:49:33;;;;;;;8.98;3.78;;;;;;;32.12;49.68;100276.09;5083113;28;20472;-67
2023/06/23 10:52:00;;;;;;;12.75;3.55;;;;;;;32.26;49.02;100275.09;5080056;28;20109;-66
2023/06/23 10:54:27;;;;;;;16.30;3.15;;;;;;;32.32;48.76;100271.22;5075959;28;20175;-68
2023/06/23 10:56:54;;;;;;;14.32;3.70;;;;;;;32.31;48.31;100272.31;5078491;28;20601;-67
2023/06/23 10:59:22;;;;;;;8.43;3.13;;;;;;;32.21;48.53;100269.75;5077885;28;20426;-66
2023/06/23 11:02:00;;;;;;;8.13;2.90;;;;;;;31.95;48.26;100280.09;5073183;28;20070;-66
2023/06/23 11:04:30;;;;;;;14.82;3.90;;;;;;;31.80;49.44;100288.38;5085610;28;20508;-67
2023/06/23 11:07:02;;;;;;;10.13;3.78;;;;;;;32.02;49.90;100293.22;5089280;28;20032;-67
2023/06/23 11:10:02;;;;;;;13.75;4.00;;;;;;;31.99;50.25;100289.22;5086241;28;20032;-67
2023/06/23 11:12:37;;;;;;;8.13;3.55;;;;;;;31.64;50.67;100287.75;5084562;28;20028;-66
2023/06/23 11:15:08;;;;;;;11.82;4.22;;;;;;;31.60;51.81;100288.63;5085263;28;20036;-65
2023/06/23 11:17:59;;;;;;;13.02;3.90;;;;;;;31.85;52.00;100293.69;5064792;28;20488;-66
2023/06/23 11:20:25;;;;;;;10.10;4.72;;;;;;;31.91;53.10;100295.25;5065524;28;20123;-66
2023/06/23 11:22:55;;;;;;;15.98;4.47;;;;;;;32.00;51.82;100293.50;5063305;28;20136;-65
2023/06/23 11:25:32;;;;;;;9.80;4.22;;;;;;;32.08;52.83;100296.63;5062263;28;20039;-66
2023/06/23 11:28:33;;;;;;;16.23;4.25;;;;;;;32.17;52.04;100297.56;5065722;28;20055;-66
2023/06/23 11:30:59;;;;;;;10.88;4.40;;;;;;;32.34;51.88;100305.97;5060894;28;20083;-66